Time;durP1;ratioP1;P1;durP2;ratioP2;P2;SDS_P1;SDS_P2;PMS_P1;PMS_P2;Temp;Humidity;BMP_temperature;BMP_pressure;BME280_temperature;BME280_humidity;BME280_pressure;Samples;Min_cycle;Max_cycle;Signal;HPM_P1;HPM_P2
2021/05/09 00:01:27;;;;;;;3.13;1.60;;;14.30;86.00;;;;;;4934618;29;20023;-75
2021/05/09 00:03:54;;;;;;;2.60;1.50;;;14.30;86.00;;;;;;4934029;29;20491;-75
2021/05/09 00:06:20;;;;;;;3.92;1.45;;;14.30;86.00;;;;;;4935590;29;20039;-75
2021/05/09 00:08:46;;;;;;;4.47;1.35;;;14.30;86.00;;;;;;4935668;29;20163;-75
2021/05/09 00:11:12;;;;;;;3.35;1.50;;;14.30;85.90;;;;;;4935523;29;20027;-75
2021/05/09 00:13:38;;;;;;;4.32;2.13;;;14.30;85.90;;;;;;4934143;29;20371;-75
2021/05/09 00:16:05;;;;;;;2.53;1.58;;;14.20;85.80;;;;;;4934613;29;20024;-76
2021/05/09 00:18:30;;;;;;;1.85;1.00;;;14.30;85.80;;;;;;4934656;29;20031;-74
2021/05/09 00:20:56;;;;;;;3.63;1.55;;;14.20;85.80;;;;;;4933721;29;20199;-75
2021/05/09 00:23:23;;;;;;;3.47;1.63;;;14.20;85.90;;;;;;4933843;29;20168;-75
2021/05/09 00:25:49;;;;;;;3.58;1.65;;;14.20;86.00;;;;;;4933670;29;20449;-76
2021/05/09 00:28:14;;;;;;;3.45;1.73;;;14.20;86.00;;;;;;4937891;29;20484;-76
2021/05/09 00:30:40;;;;;;;2.88;1.30;;;14.20;86.00;;;;;;4936893;29;20392;-74
2021/05/09 00:33:06;;;;;;;4.25;1.60;;;14.20;86.60;;;;;;4937531;29;20031;-75
2021/05/09 00:35:31;;;;;;;2.85;1.38;;;14.10;86.00;;;;;;4937850;29;20024;-75
2021/05/09 00:37:57;;;;;;;3.63;1.70;;;14.10;86.00;;;;;;4936874;29;20090;-75
2021/05/09 00:40:23;;;;;;;3.30;1.40;;;14.10;86.00;;;;;;4936272;29;20114;-74
2021/05/09 00:42:48;;;;;;;1.25;1.02;;;14.10;86.00;;;;;;4951603;28;20020;-74
2021/05/09 00:45:14;;;;;;;3.55;1.58;;;14.10;86.00;;;;;;4937437;29;20038;-75
2021/05/09 00:47:40;;;;;;;2.35;1.38;;;14.10;86.00;;;;;;4936983;29;20020;-76
2021/05/09 00:50:06;;;;;;;3.35;1.45;;;14.20;86.00;;;;;;4937177;29;20027;-74
2021/05/09 00:52:36;;;;;;;2.72;1.23;;;14.10;86.00;;;;;;4937444;29;20026;-75
2021/05/09 00:55:07;;;;;;;3.42;1.88;;;14.10;86.00;;;;;;4936833;29;20062;-75
2021/05/09 00:57:35;;;;;;;3.85;1.20;;;14.10;86.10;;;;;;4937512;29;20094;-75
2021/05/09 01:00:04;;;;;;;2.00;1.38;;;14.10;86.10;;;;;;4936527;29;20492;-74
2021/05/09 01:02:31;;;;;;;3.85;1.63;;;14.10;86.00;;;;;;4937068;29;20111;-74
2021/05/09 01:04:58;;;;;;;2.17;1.52;;;14.10;86.10;;;;;;4936676;29;20038;-75
2021/05/09 01:07:24;;;;;;;2.80;1.58;;;14.00;86.10;;;;;;4937193;29;20031;-74
2021/05/09 01:09:49;;;;;;;4.22;1.42;;;14.10;86.10;;;;;;4936520;29;20099;-76
2021/05/09 01:12:15;;;;;;;3.65;1.52;;;14.00;86.00;;;;;;4937145;29;20107;-75
2021/05/09 01:14:42;;;;;;;3.42;1.10;;;14.10;86.10;;;;;;4950984;29;20051;-76
2021/05/09 01:17:08;;;;;;;3.17;1.80;;;14.00;86.10;;;;;;4935704;29;20094;-75
2021/05/09 01:19:35;;;;;;;2.70;1.40;;;14.00;86.20;;;;;;4936919;29;20053;-74
2021/05/09 01:22:01;;;;;;;3.50;1.50;;;14.00;86.40;;;;;;4936132;29;20305;-75
2021/05/09 01:24:27;;;;;;;2.75;1.65;;;14.00;86.40;;;;;;4936562;29;20063;-74
2021/05/09 01:26:52;;;;;;;3.17;1.42;;;13.90;86.40;;;;;;4936586;29;20032;-75
2021/05/09 01:29:18;;;;;;;2.38;1.30;;;13.90;86.40;;;;;;4936521;29;20055;-75
2021/05/09 01:31:45;;;;;;;2.92;1.40;;;13.80;86.40;;;;;;4936145;29;20345;-74
2021/05/09 01:34:11;;;;;;;3.03;1.63;;;13.90;86.60;;;;;;4937103;29;20119;-75
2021/05/09 01:36:37;;;;;;;2.92;1.50;;;13.80;86.60;;;;;;4936422;29;20512;-75
2021/05/09 01:39:04;;;;;;;3.45;1.50;;;13.80;86.70;;;;;;4936029;29;20082;-75
2021/05/09 01:41:30;;;;;;;2.30;1.13;;;13.70;86.70;;;;;;4936560;29;20020;-74
2021/05/09 01:43:55;;;;;;;1.95;1.20;;;13.70;86.90;;;;;;4935612;29;20035;-75
2021/05/09 01:46:21;;;;;;;2.83;1.52;;;13.70;87.00;;;;;;4935209;29;20078;-74
2021/05/09 01:48:47;;;;;;;1.73;1.15;;;13.60;87.10;;;;;;4935658;29;20551;-75
2021/05/09 01:51:12;;;;;;;4.10;1.60;;;13.60;87.20;;;;;;4936617;29;20026;-75
2021/05/09 01:53:38;;;;;;;3.78;1.50;;;13.50;87.30;;;;;;4936283;29;20106;-75
2021/05/09 01:56:04;;;;;;;1.65;0.90;;;13.50;87.40;;;;;;4935874;29;20070;-76
2021/05/09 01:58:30;;;;;;;2.17;0.88;;;13.50;87.60;;;;;;4934958;29;20020;-74
2021/05/09 02:00:55;;;;;;;3.05;1.60;;;13.40;87.70;;;;;;4935644;29;20334;-74
2021/05/09 02:03:21;;;;;;;4.05;1.40;;;13.40;87.80;;;;;;4936036;29;20030;-74
2021/05/09 02:05:47;;;;;;;2.55;1.60;;;13.40;87.80;;;;;;4935267;29;20031;-75
2021/05/09 02:08:12;;;;;;;2.42;1.20;;;13.40;88.00;;;;;;4935950;29;20106;-75
2021/05/09 02:10:38;;;;;;;3.53;1.45;;;13.30;88.00;;;;;;4936135;29;20023;-75
2021/05/09 02:13:04;;;;;;;1.75;1.30;;;13.30;88.10;;;;;;4935345;29;20039;-74
2021/05/09 02:15:31;;;;;;;2.92;1.50;;;13.30;88.20;;;;;;4935721;29;20027;-75
2021/05/09 02:17:56;;;;;;;3.63;1.58;;;13.20;88.20;;;;;;4935489;29;20024;-76
2021/05/09 02:20:22;;;;;;;3.88;1.30;;;13.20;88.30;;;;;;4935855;29;20183;-74
2021/05/09 02:22:48;;;;;;;3.10;1.30;;;13.20;88.40;;;;;;4935056;29;20046;-75
2021/05/09 02:25:14;;;;;;;3.20;1.52;;;13.20;88.40;;;;;;4935877;29;20555;-75
2021/05/09 02:27:40;;;;;;;7.00;1.73;;;13.10;88.30;;;;;;4935748;29;20076;-75
2021/05/09 02:30:07;;;;;;;4.38;1.60;;;13.10;88.50;;;;;;4933708;29;20319;-75
2021/05/09 02:32:33;;;;;;;3.50;1.50;;;13.10;88.60;;;;;;4935452;29;20034;-74
2021/05/09 02:34:58;;;;;;;2.83;1.17;;;13.10;88.60;;;;;;4934631;29;20032;-75
2021/05/09 02:37:24;;;;;;;2.63;1.42;;;13.00;88.60;;;;;;4935553;29;20024;-74
2021/05/09 02:39:50;;;;;;;2.92;1.42;;;13.00;88.80;;;;;;4934854;29;20115;-75
2021/05/09 02:42:15;;;;;;;2.70;1.73;;;13.00;88.80;;;;;;4934611;29;20123;-74
2021/05/09 02:44:41;;;;;;;3.33;1.65;;;13.00;88.90;;;;;;4935248;29;20491;-75
2021/05/09 02:47:07;;;;;;;3.50;1.83;;;12.90;88.90;;;;;;4934848;29;20266;-74
2021/05/09 02:49:32;;;;;;;3.13;1.40;;;12.90;89.00;;;;;;4934906;29;20027;-74
2021/05/09 02:52:02;;;;;;;4.38;1.48;;;12.90;89.00;;;;;;4933157;29;20024;-74
2021/05/09 02:54:28;;;;;;;2.20;1.70;;;12.90;89.10;;;;;;4935151;29;20034;-74
2021/05/09 02:56:54;;;;;;;3.05;1.85;;;12.90;89.20;;;;;;4934816;29;20119;-75
2021/05/09 02:59:19;;;;;;;4.10;1.55;;;12.80;89.20;;;;;;4935132;29;20455;-74
2021/05/09 03:01:45;;;;;;;3.95;1.73;;;12.80;89.30;;;;;;4934042;29;20480;-74
2021/05/09 03:04:11;;;;;;;3.10;1.67;;;12.80;89.40;;;;;;4934101;29;20477;-75
2021/05/09 03:06:37;;;;;;;3.10;1.42;;;12.80;89.50;;;;;;4934861;29;20027;-74
2021/05/09 03:09:04;;;;;;;3.35;1.70;;;12.70;89.40;;;;;;4934487;29;20095;-75
2021/05/09 03:11:30;;;;;;;3.53;1.60;;;12.80;89.60;;;;;;4935164;29;20035;-75
2021/05/09 03:13:56;;;;;;;3.88;1.42;;;12.70;89.60;;;;;;4934261;29;20046;-75
2021/05/09 03:16:22;;;;;;;5.20;1.63;;;12.70;89.70;;;;;;4934654;29;20384;-75
2021/05/09 03:18:48;;;;;;;3.88;1.30;;;12.70;89.80;;;;;;4934899;29;20074;-75
2021/05/09 03:21:14;;;;;;;3.20;1.58;;;12.70;89.90;;;;;;4934218;29;20385;-75
2021/05/09 03:23:40;;;;;;;3.30;1.58;;;12.70;89.80;;;;;;4934575;29;20049;-75
2021/05/09 03:26:06;;;;;;;3.65;1.80;;;12.70;89.90;;;;;;4934289;29;20032;-75
2021/05/09 03:28:32;;;;;;;3.80;1.50;;;12.60;89.90;;;;;;4949459;29;20023;-75
2021/05/09 03:30:58;;;;;;;2.58;1.33;;;12.60;89.90;;;;;;4934197;29;20480;-75
2021/05/09 03:33:23;;;;;;;2.65;1.25;;;12.60;90.00;;;;;;4934948;29;20027;-74
2021/05/09 03:35:49;;;;;;;4.07;2.13;;;12.60;90.00;;;;;;4934620;29;20035;-74
2021/05/09 03:38:15;;;;;;;4.75;1.85;;;12.60;90.00;;;;;;4934010;29;20086;-75
2021/05/09 03:40:41;;;;;;;3.40;1.77;;;12.60;90.00;;;;;;4933485;29;20045;-75
2021/05/09 03:43:07;;;;;;;4.78;2.47;;;12.60;90.00;;;;;;4933768;29;20182;-75
2021/05/09 03:45:33;;;;;;;3.42;1.65;;;12.60;90.00;;;;;;4934702;29;20035;-75
2021/05/09 03:47:59;;;;;;;2.38;1.48;;;12.50;90.00;;;;;;4933800;29;20024;-75
2021/05/09 03:50:25;;;;;;;2.35;1.25;;;12.50;90.00;;;;;;4933305;29;20080;-75
2021/05/09 03:52:51;;;;;;;1.67;1.20;;;12.50;90.00;;;;;;4934304;29;20058;-75
2021/05/09 03:55:16;;;;;;;3.80;1.73;;;12.50;90.00;;;;;;4933967;29;20466;-74
2021/05/09 03:57:43;;;;;;;2.83;1.50;;;12.50;90.00;;;;;;4934369;29;20492;-75
2021/05/09 04:00:09;;;;;;;4.03;1.73;;;12.50;90.00;;;;;;4934166;29;20038;-75
2021/05/09 04:02:35;;;;;;;3.70;1.42;;;12.50;90.00;;;;;;4938385;29;20103;-74
2021/05/09 04:05:00;;;;;;;26.70;24.95;;;12.50;90.10;;;;;;4936303;29;20098;-75
2021/05/09 04:07:26;;;;;;;2.28;1.20;;;12.50;90.10;;;;;;4938243;29;20027;-75
2021/05/09 04:09:52;;;;;;;3.35;2.05;;;12.50;90.00;;;;;;4936865;29;20051;-74
2021/05/09 04:12:17;;;;;;;4.90;1.52;;;12.50;90.10;;;;;;4936341;29;20038;-74
2021/05/09 04:14:43;;;;;;;4.32;1.33;;;12.50;90.00;;;;;;4937861;29;20063;-74
2021/05/09 04:17:09;;;;;;;2.80;1.55;;;12.50;90.10;;;;;;4937496;29;20486;-75
2021/05/09 04:19:35;;;;;;;2.72;1.50;;;12.50;90.10;;;;;;4937787;29;20430;-75
2021/05/09 04:22:00;;;;;;;2.35;1.38;;;12.40;90.10;;;;;;4937697;29;20027;-75
2021/05/09 04:24:26;;;;;;;4.07;2.50;;;12.40;90.10;;;;;;4937602;29;20489;-75
2021/05/09 04:26:52;;;;;;;5.03;2.03;;;12.40;90.10;;;;;;4937973;29;20028;-75
2021/05/09 04:29:18;;;;;;;4.88;2.17;;;12.40;90.10;;;;;;4937391;29;20023;-75
2021/05/09 04:31:43;;;;;;;3.70;1.95;;;12.40;90.10;;;;;;4938132;29;20027;-75
2021/05/09 04:34:09;;;;;;;4.65;1.85;;;12.40;90.10;;;;;;4937221;29;20395;-74
2021/05/09 04:36:34;;;;;;;3.10;1.48;;;12.40;90.10;;;;;;4938063;29;20062;-75
2021/05/09 04:39:00;;;;;;;2.05;1.50;;;12.40;90.10;;;;;;4936917;29;20035;-75
2021/05/09 04:41:26;;;;;;;3.75;1.90;;;12.40;90.10;;;;;;4937798;29;20392;-75
2021/05/09 04:43:52;;;;;;;3.03;1.65;;;12.40;90.10;;;;;;4937617;29;20438;-75
2021/05/09 04:46:17;;;;;;;6.00;1.85;;;12.40;90.10;;;;;;4951732;28;20035;-74
2021/05/09 04:48:43;;;;;;;4.05;1.90;;;12.40;90.10;;;;;;4936158;29;20492;-74
2021/05/09 04:51:08;;;;;;;9.75;3.97;;;12.40;90.10;;;;;;4936934;29;20159;-75
2021/05/09 04:53:36;;;;;;;7.80;3.42;;;12.40;90.10;;;;;;4937055;29;20042;-75
2021/05/09 04:56:06;;;;;;;8.35;4.28;;;12.40;90.20;;;;;;4936779;29;20034;-75
2021/05/09 04:58:32;;;;;;;10.48;5.15;;;12.40;90.10;;;;;;4936227;29;20027;-75
2021/05/09 05:01:00;;;;;;;8.63;3.55;;;12.50;90.10;;;;;;4936727;29;20479;-75
2021/05/09 05:03:30;;;;;;;7.22;4.00;;;12.40;90.10;;;;;;4937245;29;20145;-75
2021/05/09 05:05:56;;;;;;;5.15;2.40;;;12.50;90.10;;;;;;4935871;29;20067;-75
2021/05/09 05:08:22;;;;;;;5.05;2.08;;;12.50;90.10;;;;;;4936551;29;20110;-75
2021/05/09 05:10:49;;;;;;;3.00;1.70;;;12.50;90.10;;;;;;4967694;28;20034;-75
2021/05/09 05:13:31;;;;;;;3.97;1.85;;;12.50;90.10;;;;;;4951024;29;20028;-74
2021/05/09 05:15:57;;;;;;;;;;;12.60;90.10;;;;;;4937464;29;20024;-74
2021/05/09 05:18:24;;;;;;;4.35;1.58;;;12.50;90.00;;;;;;4936599;29;19942;-75
2021/05/09 05:20:51;;;;;;;3.70;1.90;;;12.60;90.00;;;;;;4936716;29;20052;-74
2021/05/09 05:23:17;;;;;;;4.13;1.70;;;12.60;90.00;;;;;;4935931;29;20035;-74
2021/05/09 05:25:43;;;;;;;2.65;1.63;;;12.60;90.00;;;;;;4936579;29;20488;-74
2021/05/09 05:28:09;;;;;;;3.40;1.90;;;12.70;90.00;;;;;;4936140;29;20039;-73
2021/05/09 05:30:35;;;;;;;6.88;2.35;;;12.70;90.00;;;;;;4936860;29;20024;-75
2021/05/09 05:33:01;;;;;;;3.45;1.90;;;12.70;89.90;;;;;;4935889;29;20027;-75
2021/05/09 05:35:27;;;;;;;4.88;2.50;;;12.80;89.90;;;;;;4936676;29;20415;-75
2021/05/09 05:37:55;;;;;;;4.57;2.65;;;12.80;89.80;;;;;;4936350;29;20099;-75
2021/05/09 05:40:22;;;;;;;4.47;2.60;;;12.80;89.70;;;;;;4935974;29;20059;-74
2021/05/09 05:42:49;;;;;;;6.25;1.92;;;12.90;89.70;;;;;;4936175;29;20472;-75
2021/05/09 05:45:15;;;;;;;4.75;2.05;;;12.90;89.70;;;;;;4935803;29;20464;-75
2021/05/09 05:47:41;;;;;;;3.65;1.85;;;12.90;89.60;;;;;;4936399;29;20031;-76
2021/05/09 05:50:07;;;;;;;3.50;2.22;;;13.00;89.70;;;;;;4935924;29;20027;-75
2021/05/09 05:52:33;;;;;;;4.32;2.10;;;13.00;89.70;;;;;;4936153;29;20047;-74
2021/05/09 05:54:59;;;;;;;2.67;1.52;;;13.00;89.70;;;;;;4936122;29;20449;-75
2021/05/09 05:57:25;;;;;;;3.72;1.80;;;13.00;89.70;;;;;;4935480;29;20156;-76
2021/05/09 05:59:50;;;;;;;5.63;2.03;;;13.00;89.70;;;;;;4936304;29;20110;-75
2021/05/09 06:02:16;;;;;;;3.90;1.95;;;13.10;89.70;;;;;;4936011;29;20039;-75
2021/05/09 06:04:42;;;;;;;2.47;1.30;;;13.10;89.60;;;;;;4934891;29;20028;-74
2021/05/09 06:07:09;;;;;;;2.67;1.30;;;13.10;89.60;;;;;;4935976;29;20400;-75
2021/05/09 06:09:34;;;;;;;2.92;1.50;;;13.20;89.60;;;;;;4936936;29;20023;-75
2021/05/09 06:12:02;;;;;;;4.40;1.90;;;13.20;89.60;;;;;;4935255;29;20019;-74
2021/05/09 06:14:28;;;;;;;4.10;1.85;;;13.20;89.50;;;;;;4936803;29;20027;-75
2021/05/09 06:16:53;;;;;;;3.90;2.05;;;13.30;89.60;;;;;;4936142;29;20031;-74
2021/05/09 06:19:19;;;;;;;2.97;1.42;;;13.40;89.50;;;;;;4935939;29;20027;-75
2021/05/09 06:21:45;;;;;;;3.00;2.20;;;13.40;89.40;;;;;;4936113;29;20035;-74
2021/05/09 06:24:10;;;;;;;4.30;1.60;;;13.40;89.30;;;;;;4934526;29;20032;-75
2021/05/09 06:26:36;;;;;;;2.53;1.60;;;13.50;89.30;;;;;;4945402;29;20106;-75
2021/05/09 06:29:02;;;;;;;2.80;1.30;;;13.50;89.20;;;;;;4948792;28;20026;-75
2021/05/09 06:31:27;;;;;;;3.35;1.75;;;13.60;89.10;;;;;;4953728;29;20085;-75
2021/05/09 06:33:53;;;;;;;2.10;1.80;;;13.60;89.00;;;;;;4954821;29;20082;-75
2021/05/09 06:36:18;;;;;;;3.90;1.73;;;13.70;88.90;;;;;;4954222;29;20439;-75
2021/05/09 06:38:44;;;;;;;3.17;1.55;;;13.70;88.90;;;;;;4954020;29;20082;-74
2021/05/09 06:41:10;;;;;;;2.50;1.50;;;13.80;88.80;;;;;;4952439;29;20027;-74
2021/05/09 06:43:36;;;;;;;1.98;1.40;;;13.80;88.70;;;;;;4953622;28;20035;-75
2021/05/09 06:46:04;;;;;;;1.55;1.30;;;13.90;88.60;;;;;;4953941;28;20118;-74
2021/05/09 06:48:30;;;;;;;1.15;0.95;;;14.00;88.40;;;;;;4953727;28;20034;-75
2021/05/09 06:50:57;;;;;;;2.63;1.13;;;14.10;88.20;;;;;;4954335;29;20035;-74
2021/05/09 06:53:23;;;;;;;1.67;1.35;;;14.10;88.00;;;;;;4953713;28;20034;-75
2021/05/09 06:55:51;;;;;;;4.10;1.50;;;14.20;87.90;;;;;;4954004;29;20028;-74
2021/05/09 06:58:20;;;;;;;3.05;1.73;;;14.30;87.70;;;;;;4953613;28;20155;-75
2021/05/09 07:00:47;;;;;;;2.22;1.00;;;14.40;87.50;;;;;;4953970;28;20027;-75
2021/05/09 07:03:12;;;;;;;3.75;1.75;;;14.40;87.40;;;;;;4953256;28;20023;-74
2021/05/09 07:05:38;;;;;;;2.10;1.40;;;14.50;87.40;;;;;;4952309;28;20033;-74
2021/05/09 07:08:04;;;;;;;4.07;2.08;;;14.50;87.40;;;;;;4954398;28;20428;-75
2021/05/09 07:10:33;;;;;;;3.92;1.45;;;14.60;87.30;;;;;;4953707;28;20031;-74
2021/05/09 07:12:59;;;;;;;2.80;1.52;;;14.60;87.10;;;;;;4954342;28;20034;-75
2021/05/09 07:15:37;;;;;;;5.20;2.58;;;14.70;87.00;;;;;;4946530;28;20035;-74
2021/05/09 07:20:36;;;;;;;5.53;2.00;;;14.70;86.70;;;;;;4954133;28;20035;-74
2021/05/09 07:23:02;;;;;;;5.15;1.88;;;14.80;86.60;;;;;;4953757;28;20043;-74
2021/05/09 07:25:28;;;;;;;3.35;1.45;;;14.90;86.50;;;;;;4953141;28;20570;-75
2021/05/09 07:28:03;;;;;;;3.97;2.10;;;14.90;86.20;;;;;;4968324;28;20400;-73
2021/05/09 07:30:29;;;;;;;3.88;1.60;;;15.00;86.00;;;;;;4953436;28;20091;-76
2021/05/09 07:32:54;;;;;;;2.83;1.58;;;15.10;85.90;;;;;;4953608;28;20020;-77
2021/05/09 07:35:20;;;;;;;6.70;2.10;;;15.20;85.60;;;;;;4951888;28;20475;-74
2021/05/09 07:37:45;;;;;;;3.55;1.70;;;15.30;85.50;;;;;;4953854;29;20061;-75
2021/05/09 07:40:11;;;;;;;2.67;1.80;;;15.40;85.30;;;;;;4953311;29;20034;-75
2021/05/09 07:42:37;;;;;;;1.92;1.15;;;15.40;85.20;;;;;;4952535;29;20026;-76
2021/05/09 07:45:03;;;;;;;2.83;2.20;;;15.40;85.00;;;;;;4953940;28;20467;-74
2021/05/09 07:47:29;;;;;;;2.42;1.38;;;15.40;85.00;;;;;;4951988;29;20366;-75
2021/05/09 07:49:54;;;;;;;2.38;1.40;;;15.50;85.00;;;;;;4945799;28;20023;-75
2021/05/09 07:52:20;;;;;;;2.42;1.55;;;15.50;85.00;;;;;;4971596;28;20032;-76
2021/05/09 07:54:46;;;;;;;1.50;1.10;;;15.50;84.80;;;;;;4949226;28;20031;-75
2021/05/09 07:57:11;;;;;;;2.92;1.55;;;15.60;84.60;;;;;;4938272;29;20030;-76
2021/05/09 07:59:37;;;;;;;2.25;1.40;;;15.70;84.30;;;;;;4941879;28;20038;-76
2021/05/09 08:02:03;;;;;;;12.98;3.05;;;15.90;83.90;;;;;;4943608;29;20119;-75
2021/05/09 08:04:29;;;;;;;5.47;2.30;;;16.00;83.60;;;;;;4975368;28;20217;-76
2021/05/09 08:06:54;;;;;;;3.58;1.38;;;16.20;83.30;;;;;;4933291;29;20059;-75
2021/05/09 08:09:20;;;;;;;3.60;1.77;;;16.30;83.10;;;;;;4944880;29;20067;-74
2021/05/09 08:11:46;;;;;;;3.05;1.50;;;16.30;82.90;;;;;;4949850;29;20076;-74
2021/05/09 08:14:11;;;;;;;2.67;1.58;;;16.40;82.70;;;;;;4953084;28;20034;-74
2021/05/09 08:16:37;;;;;;;1.52;1.33;;;16.40;82.60;;;;;;4953464;29;20425;-74
2021/05/09 08:19:03;;;;;;;1.98;0.95;;;16.50;82.40;;;;;;4951676;29;20111;-75
2021/05/09 08:21:28;;;;;;;2.53;1.25;;;16.50;82.20;;;;;;4947258;29;20539;-75
2021/05/09 08:23:54;;;;;;;4.70;1.13;;;16.60;82.10;;;;;;4951696;28;20499;-74
2021/05/09 08:26:21;;;;;;;2.63;1.30;;;16.70;81.90;;;;;;4951672;28;20114;-75
2021/05/09 08:28:46;;;;;;;2.10;1.17;;;16.70;81.60;;;;;;4950939;28;20490;-75
2021/05/09 08:31:16;;;;;;;2.00;1.20;;;16.80;81.30;;;;;;4942022;29;20027;-76
2021/05/09 08:33:42;;;;;;;2.40;1.38;;;16.80;81.20;;;;;;4950818;29;20026;-75
2021/05/09 08:36:07;;;;;;;1.52;1.02;;;16.90;81.20;;;;;;4953349;29;20019;-75
2021/05/09 08:38:34;;;;;;;3.05;1.30;;;17.00;80.80;;;;;;4980009;28;20042;-75
2021/05/09 08:40:59;;;;;;;1.58;0.95;;;17.00;80.30;;;;;;4944422;28;20019;-75
2021/05/09 08:43:28;;;;;;;2.35;1.00;;;17.10;80.10;;;;;;4939312;29;20086;-75
2021/05/09 08:45:57;;;;;;;2.97;1.50;;;17.20;79.60;;;;;;4934096;29;20528;-75
2021/05/09 08:48:24;;;;;;;5.22;1.52;;;17.30;79.10;;;;;;4955988;28;20110;-76
2021/05/09 08:50:51;;;;;;;1.45;0.82;;;17.30;79.10;;;;;;4956505;28;20027;-74
2021/05/09 08:53:18;;;;;;;1.98;1.25;;;17.40;78.80;;;;;;4955934;28;20031;-75
2021/05/09 08:55:44;;;;;;;5.57;1.50;;;17.40;78.60;;;;;;4954341;28;20111;-75
2021/05/09 08:58:11;;;;;;;5.35;1.40;;;17.40;78.40;;;;;;4943503;28;20743;-75
2021/05/09 09:00:37;;;;;;;2.92;1.23;;;17.40;79.00;;;;;;4975620;28;20114;-74
2021/05/09 09:03:04;;;;;;;2.97;1.40;;;17.50;78.40;;;;;;4965842;28;20425;-75
2021/05/09 09:05:33;;;;;;;2.15;1.13;;;17.50;78.50;;;;;;4954317;29;20030;-75
2021/05/09 09:07:59;;;;;;;2.33;1.65;;;17.50;78.60;;;;;;4956685;29;20028;-75
2021/05/09 09:10:48;;;;;;;2.40;1.48;;;17.50;78.70;;;;;;4956122;29;20102;-75
2021/05/09 09:13:25;;;;;;;3.03;1.45;;;17.60;78.70;;;;;;4941830;29;20040;-74
2021/05/09 09:16:12;;;;;;;6.25;1.30;;;17.60;78.80;;;;;;4937366;29;20035;-75
2021/05/09 09:18:38;;;;;;;1.90;1.23;;;17.70;78.80;;;;;;4936388;29;20028;-74
2021/05/09 09:21:30;;;;;;;5.47;1.40;;;17.80;78.80;;;;;;4941406;29;20153;-75
2021/05/09 09:23:56;;;;;;;;;;;17.90;78.70;;;;;;4942305;28;20039;-75
2021/05/09 09:26:39;;;;;;;5.63;2.05;;;17.80;78.60;;;;;;4936914;29;19919;-75
2021/05/09 09:29:28;;;;;;;2.42;1.23;;;18.00;78.70;;;;;;4949878;29;20425;-74
2021/05/09 09:32:09;;;;;;;2.42;1.25;;;18.00;78.70;;;;;;4956196;28;20027;-74
2021/05/09 09:34:43;;;;;;;1.98;1.25;;;18.00;78.70;;;;;;4954382;29;20035;-74
2021/05/09 09:37:10;;;;;;;3.10;1.65;;;18.10;78.80;;;;;;4956128;28;20031;-73
2021/05/09 09:39:53;;;;;;;2.17;1.40;;;18.10;78.70;;;;;;4955261;28;20054;-74
2021/05/09 09:42:39;;;;;;;2.65;1.80;;;18.20;78.70;;;;;;4955561;28;20428;-74
2021/05/09 09:45:25;;;;;;;1.70;1.45;;;18.40;78.60;;;;;;4955420;28;20033;-74
2021/05/09 09:47:54;;;;;;;3.15;1.63;;;18.40;78.40;;;;;;4955942;28;20027;-74
2021/05/09 09:50:50;;;;;;;2.47;1.70;;;18.40;78.50;;;;;;4955143;28;20515;-75
2021/05/09 09:53:42;;;;;;;1.85;1.10;;;18.40;78.70;;;;;;4955902;28;20050;-74
2021/05/09 09:56:15;;;;;;;4.25;1.48;;;18.30;78.80;;;;;;4955576;28;20035;-74
2021/05/09 09:58:48;;;;;;;1.58;0.80;;;18.30;78.90;;;;;;4953791;28;20030;-74
2021/05/09 10:01:22;;;;;;;2.15;1.20;;;18.30;79.10;;;;;;4955553;28;20023;-74
2021/05/09 10:03:48;;;;;;;3.53;1.38;;;18.30;79.20;;;;;;4955301;28;20046;-74
2021/05/09 10:06:14;;;;;;;2.40;1.40;;;18.30;79.30;;;;;;4955209;28;20023;-74
2021/05/09 10:08:40;;;;;;;1.88;1.45;;;18.20;79.40;;;;;;4954401;28;20217;-73
2021/05/09 10:11:06;;;;;;;1.15;0.88;;;18.30;79.40;;;;;;4949180;28;20455;-74
2021/05/09 10:13:34;;;;;;;1.52;1.15;;;18.30;79.30;;;;;;4958684;28;20034;-74
2021/05/09 10:16:00;;;;;;;2.78;1.30;;;18.30;79.20;;;;;;4953191;28;20024;-75
2021/05/09 10:18:27;;;;;;;2.88;1.60;;;18.40;79.10;;;;;;4956866;28;20401;-75
2021/05/09 10:20:54;;;;;;;2.72;1.13;;;18.50;79.00;;;;;;4955225;28;20098;-74
2021/05/09 10:23:20;;;;;;;8.18;2.00;;;18.50;78.80;;;;;;4956026;28;20028;-76
2021/05/09 10:25:55;;;;;;;1.92;1.20;;;18.60;78.70;;;;;;4955489;28;20036;-74
2021/05/09 10:28:24;;;;;;;2.53;1.50;;;18.70;78.60;;;;;;4955015;28;20027;-76
2021/05/09 10:30:57;;;;;;;1.17;0.82;;;18.80;78.50;;;;;;4956941;28;20031;-74
2021/05/09 10:33:38;;;;;;;2.25;1.38;;;18.80;78.40;;;;;;4957346;28;20020;-74
2021/05/09 10:36:24;;;;;;;1.38;0.90;;;18.90;78.30;;;;;;4956173;28;20611;-74
2021/05/09 10:39:05;;;;;;;3.08;1.38;;;18.90;78.30;;;;;;4950880;28;20039;-75
2021/05/09 10:41:31;;;;;;;1.52;1.10;;;19.00;78.20;;;;;;4960353;28;20472;-75
2021/05/09 10:43:57;;;;;;;2.67;0.93;;;19.10;78.20;;;;;;4959050;28;20114;-75
2021/05/09 10:46:22;;;;;;;5.75;2.13;;;19.10;78.10;;;;;;4959079;28;20023;-74
2021/05/09 10:49:11;;;;;;;1.85;1.00;;;19.30;77.90;;;;;;4959261;28;20095;-74
2021/05/09 10:51:37;;;;;;;2.20;1.10;;;19.50;77.30;;;;;;4954164;28;20027;-74
2021/05/09 10:54:21;;;;;;;1.67;1.20;;;19.60;76.90;;;;;;4958661;28;20126;-75
2021/05/09 10:56:48;;;;;;;1.77;1.17;;;19.90;76.50;;;;;;4957663;28;20038;-74
2021/05/09 10:59:14;;;;;;;2.20;1.15;;;19.90;76.10;;;;;;4960456;28;20026;-75
2021/05/09 11:01:43;;;;;;;2.53;1.27;;;20.00;76.20;;;;;;4962430;28;20030;-74
2021/05/09 11:04:13;;;;;;;1.55;1.27;;;20.00;76.10;;;;;;4958309;28;20031;-74
2021/05/09 11:06:45;;;;;;;2.60;1.27;;;20.00;76.20;;;;;;4960277;28;20054;-74
2021/05/09 11:09:29;;;;;;;2.67;1.65;;;20.00;76.20;;;;;;4958648;28;20038;-75
2021/05/09 11:11:57;;;;;;;2.78;1.30;;;19.90;76.10;;;;;;4944760;28;20039;-74
2021/05/09 11:14:22;;;;;;;3.05;1.55;;;19.90;76.20;;;;;;4960859;28;20034;-75
2021/05/09 11:17:06;;;;;;;1.92;1.30;;;19.80;76.50;;;;;;4961233;28;20031;-75
2021/05/09 11:19:41;;;;;;;1.60;1.10;;;19.80;76.70;;;;;;4961578;28;20431;-74
2021/05/09 11:22:09;;;;;;;2.55;1.83;;;19.80;76.70;;;;;;4958899;28;20050;-76
2021/05/09 11:24:36;;;;;;;1.30;0.90;;;19.80;76.70;;;;;;4956729;28;20057;-78
2021/05/09 11:27:16;;;;;;;2.67;1.38;;;19.80;76.50;;;;;;4959445;28;20053;-79
2021/05/09 11:29:47;;;;;;;6.07;1.50;;;19.90;76.20;;;;;;4956533;28;20421;-81
2021/05/09 11:32:14;;;;;;;6.13;2.45;;;19.90;76.20;;;;;;4962877;28;20113;-79
2021/05/09 11:34:49;;;;;;;5.07;2.35;;;19.90;76.10;;;;;;4958564;28;20121;-79
2021/05/09 11:37:14;;;;;;;2.42;1.30;;;20.00;76.00;;;;;;4961821;28;20073;-80
2021/05/09 11:39:40;;;;;;;2.20;1.40;;;20.00;75.90;;;;;;4960514;28;20479;-79
2021/05/09 11:42:15;;;;;;;1.70;1.17;;;20.10;75.80;;;;;;4962389;28;20023;-79
2021/05/09 11:44:56;;;;;;;5.25;1.83;;;20.10;75.70;;;;;;4951741;28;20031;-80
2021/05/09 11:47:27;;;;;;;1.65;1.02;;;20.10;75.60;;;;;;4960327;28;20027;-79
2021/05/09 11:49:57;;;;;;;;;;;20.10;75.60;;;;;;4956796;28;20375;-78
2021/05/09 11:52:35;;;;;;;2.05;1.15;;;20.10;75.60;;;;;;4960144;28;20300;-78
2021/05/09 11:55:03;;;;;;;3.90;1.23;;;20.10;75.60;;;;;;4962284;28;20046;-79
2021/05/09 11:57:30;;;;;;;2.10;1.40;;;20.10;75.70;;;;;;4960203;28;20023;-80
2021/05/09 12:00:01;;;;;;;1.25;1.10;;;20.10;75.80;;;;;;4959336;28;20045;-79
2021/05/09 12:02:38;;;;;;;2.03;1.02;;;20.10;76.00;;;;;;4966191;28;20486;-78
2021/05/09 12:05:06;;;;;;;6.38;2.70;;;20.00;76.20;;;;;;4961683;28;20049;-80
2021/05/09 12:07:46;;;;;;;5.43;2.25;;;19.90;76.40;;;;;;4965783;28;20027;-79
2021/05/09 12:10:15;;;;;;;2.58;1.35;;;19.90;76.60;;;;;;4944618;28;20110;-79
2021/05/09 12:12:42;;;;;;;2.70;1.50;;;19.80;76.80;;;;;;4967519;28;20360;-80
2021/05/09 12:15:10;;;;;;;2.47;1.50;;;19.70;77.00;;;;;;4967471;28;20053;-77
2021/05/09 12:18:03;;;;;;;2.90;1.70;;;19.70;77.10;;;;;;4966496;28;20022;-81
2021/05/09 12:20:35;;;;;;;2.42;1.13;;;19.80;77.20;;;;;;4963359;28;20019;-80
2021/05/09 12:23:17;;;;;;;2.83;1.25;;;19.70;77.30;;;;;;4954538;28;20492;-80
2021/05/09 12:25:48;;;;;;;2.65;1.30;;;19.70;77.30;;;;;;4956626;28;20047;-77
2021/05/09 12:28:19;;;;;;;4.57;1.67;;;19.70;77.40;;;;;;4956268;28;20042;-78
2021/05/09 12:30:46;;;;;;;2.75;1.30;;;19.70;77.30;;;;;;4956035;28;20027;-80
2021/05/09 12:33:23;;;;;;;2.17;1.38;;;19.70;77.30;;;;;;4960809;28;20023;-78
2021/05/09 12:35:50;;;;;;;3.78;1.45;;;19.80;77.30;;;;;;4956666;28;20106;-78
2021/05/09 12:38:27;;;;;;;1.77;1.30;;;19.80;77.20;;;;;;4958614;28;20031;-79
2021/05/09 12:41:16;;;;;;;2.33;1.33;;;19.90;77.10;;;;;;4955991;28;20023;-77
2021/05/09 12:43:52;;;;;;;2.00;1.40;;;19.90;77.00;;;;;;4958256;28;20042;-78
2021/05/09 12:46:48;;;;;;;2.05;1.30;;;19.90;77.00;;;;;;4962139;28;20033;-78
2021/05/09 12:49:29;;;;;;;2.85;1.52;;;19.90;76.90;;;;;;4962485;28;20073;-78
2021/05/09 12:52:04;;;;;;;2.70;1.42;;;20.00;76.90;;;;;;4957957;28;20098;-80
2021/05/09 12:54:44;;;;;;;2.63;1.60;;;20.00;76.70;;;;;;4964487;28;20037;-80
2021/05/09 12:57:31;;;;;;;5.57;1.50;;;20.10;76.70;;;;;;4962658;28;20019;-78